Time;durP1;ratioP1;P1;durP2;ratioP2;P2;SDS_P1;SDS_P2;PMS_P1;PMS_P2;Temp;Humidity;BMP_temperature;BMP_pressure;BME280_temperature;BME280_humidity;BME280_pressure;Samples;Min_cycle;Max_cycle;Signal;HPM_P1;HPM_P2
2023/11/16 00:00:35;;;;;;;6.50;0.82;;;10.10;99.90;;;;;;6210364;23;20071;-77
2023/11/16 00:03:02;;;;;;;5.30;0.40;;;10.10;99.90;;;;;;6212622;23;20009;-77
2023/11/16 00:05:28;;;;;;;5.05;0.68;;;10.10;99.90;;;;;;6211838;23;20046;-77
2023/11/16 00:07:55;;;;;;;8.20;1.10;;;10.10;99.90;;;;;;6211915;23;20027;-78
2023/11/16 00:10:21;;;;;;;7.13;0.88;;;10.10;99.90;;;;;;6211980;23;20009;-78
2023/11/16 00:12:47;;;;;;;4.03;0.60;;;10.10;99.90;;;;;;6212835;23;20008;-76
2023/11/16 00:15:13;;;;;;;5.15;1.17;;;10.10;99.90;;;;;;6212661;23;20011;-78
2023/11/16 00:17:39;;;;;;;14.60;2.58;;;10.10;99.90;;;;;;6211690;23;20038;-75
2023/11/16 00:20:07;;;;;;;8.20;1.10;;;10.10;99.90;;;;;;6213352;23;20019;-77
2023/11/16 00:22:33;;;;;;;11.45;0.85;;;10.10;99.90;;;;;;6212805;23;20347;-76
2023/11/16 00:24:58;;;;;;;4.90;1.55;;;10.10;99.90;;;;;;6212795;23;20008;-77
2023/11/16 00:27:26;;;;;;;5.57;0.95;;;10.10;99.90;;;;;;6211394;23;20015;-77
2023/11/16 00:29:52;;;;;;;6.60;1.02;;;10.00;99.90;;;;;;6213275;23;20005;-78
2023/11/16 00:32:18;;;;;;;4.88;0.98;;;10.10;99.90;;;;;;6211444;23;20012;-75
2023/11/16 00:34:44;;;;;;;5.05;0.90;;;10.20;99.90;;;;;;6212815;23;20008;-76
2023/11/16 00:37:10;;;;;;;3.30;0.70;;;10.10;99.90;;;;;;6212614;23;20051;-77
2023/11/16 00:39:38;;;;;;;5.80;1.00;;;10.00;99.90;;;;;;6211723;23;20020;-77
2023/11/16 00:42:05;;;;;;;3.88;0.55;;;10.00;99.90;;;;;;6212133;23;20008;-78
2023/11/16 00:44:30;;;;;;;5.03;1.27;;;10.10;99.90;;;;;;6210327;23;20016;-76
2023/11/16 00:46:57;;;;;;;5.40;1.38;;;10.00;99.90;;;;;;6212209;23;20008;-77
2023/11/16 00:49:23;;;;;;;1.65;0.35;;;9.90;99.90;;;;;;6210930;23;20020;-76
2023/11/16 00:51:49;;;;;;;2.13;0.50;;;10.00;99.90;;;;;;6213789;23;20008;-77
2023/11/16 00:54:15;;;;;;;3.60;0.73;;;10.00;99.90;;;;;;6209284;23;20028;-77
2023/11/16 00:56:41;;;;;;;2.67;0.32;;;9.90;99.90;;;;;;6212641;23;20008;-76
2023/11/16 00:59:07;;;;;;;4.95;0.30;;;9.80;99.90;;;;;;6210996;23;20019;-77
2023/11/16 01:01:33;;;;;;;2.85;1.20;;;9.80;99.90;;;;;;6209189;23;20153;-76
2023/11/16 01:04:00;;;;;;;6.72;0.40;;;9.70;99.90;;;;;;6211156;23;20012;-78
2023/11/16 01:06:32;;;;;;;6.43;1.50;;;9.70;99.90;;;;;;6209188;23;20091;-77
2023/11/16 01:08:59;;;;;;;4.10;0.85;;;9.70;99.90;;;;;;6210387;23;20036;-75
2023/11/16 01:11:27;;;;;;;2.38;0.30;;;9.60;99.90;;;;;;6210274;23;20016;-78
2023/11/16 01:13:57;;;;;;;4.93;0.50;;;9.60;99.90;;;;;;6210645;23;20016;-77
2023/11/16 01:16:30;;;;;;;3.47;0.50;;;9.60;99.90;;;;;;6208178;23;20028;-75
2023/11/16 01:18:56;;;;;;;2.38;0.35;;;9.60;99.90;;;;;;6210831;23;20008;-78
2023/11/16 01:21:22;;;;;;;4.38;0.70;;;9.60;99.90;;;;;;6209321;23;20012;-78
2023/11/16 01:23:48;;;;;;;6.40;0.32;;;9.60;99.90;;;;;;6210409;23;20490;-76
2023/11/16 01:26:17;;;;;;;5.10;0.52;;;9.60;99.90;;;;;;6210686;23;20017;-77
2023/11/16 01:28:50;;;;;;;4.60;0.55;;;9.70;99.90;;;;;;6209937;23;20528;-75
2023/11/16 01:31:19;;;;;;;3.67;0.32;;;9.70;99.90;;;;;;6209430;23;20450;-77
2023/11/16 01:33:45;;;;;;;7.72;1.75;;;9.60;99.90;;;;;;6210600;23;20016;-77
2023/11/16 01:36:11;;;;;;;2.33;0.30;;;9.60;99.90;;;;;;6208483;23;20016;-77
2023/11/16 01:38:37;;;;;;;16.80;1.55;;;9.60;99.90;;;;;;6208383;23;20092;-77
2023/11/16 01:41:06;;;;;;;6.57;2.10;;;9.50;99.90;;;;;;6209704;23;20658;-77
2023/11/16 01:43:33;;;;;;;6.82;0.60;;;9.50;99.90;;;;;;6208357;23;20012;-75
2023/11/16 01:46:00;;;;;;;4.53;0.73;;;9.50;99.90;;;;;;6209323;23;20012;-75
2023/11/16 01:48:26;;;;;;;4.28;0.77;;;9.50;99.90;;;;;;6208438;23;20024;-76
2023/11/16 01:50:53;;;;;;;7.72;0.50;;;9.50;99.90;;;;;;6210790;23;20067;-76
2023/11/16 01:53:22;;;;;;;3.42;0.30;;;9.50;99.90;;;;;;6209219;23;20025;-76
2023/11/16 01:55:50;;;;;;;3.45;0.40;;;9.40;99.90;;;;;;6209741;23;20027;-77
2023/11/16 01:58:16;;;;;;;3.90;0.35;;;9.50;99.90;;;;;;6209163;23;20004;-74
2023/11/16 02:00:43;;;;;;;4.05;0.38;;;9.50;99.90;;;;;;6210332;23;20551;-76
2023/11/16 02:03:10;;;;;;;2.50;0.60;;;9.40;99.90;;;;;;6210283;23;20351;-76
2023/11/16 02:05:37;;;;;;;4.72;0.50;;;9.40;99.90;;;;;;6209297;23;20016;-77
2023/11/16 02:08:08;;;;;;;4.40;0.82;;;9.40;99.90;;;;;;6210624;23;20024;-77
2023/11/16 02:10:35;;;;;;;4.32;0.40;;;9.40;99.90;;;;;;6211354;23;20017;-77
2023/11/16 02:13:01;;;;;;;5.88;0.95;;;9.40;99.90;;;;;;6211093;23;20132;-77
2023/11/16 02:15:31;;;;;;;6.85;0.73;;;9.40;99.90;;;;;;6209293;23;20048;-78
2023/11/16 02:17:58;;;;;;;2.92;0.30;;;9.40;99.90;;;;;;6210428;23;20042;-77
2023/11/16 02:20:24;;;;;;;5.57;0.57;;;9.40;99.90;;;;;;6209126;23;20030;-76
2023/11/16 02:22:53;;;;;;;2.70;0.43;;;9.40;99.90;;;;;;6210360;23;20008;-77
2023/11/16 02:25:19;;;;;;;6.80;1.17;;;9.40;99.90;;;;;;6208887;23;20448;-77
2023/11/16 02:27:45;;;;;;;7.30;0.65;;;9.40;99.90;;;;;;6208753;23;20042;-75
2023/11/16 02:30:12;;;;;;;5.82;0.73;;;9.30;99.90;;;;;;6208987;23;20019;-75
2023/11/16 02:32:38;;;;;;;6.35;0.68;;;9.30;99.90;;;;;;6208994;23;20024;-77
2023/11/16 02:35:04;;;;;;;5.60;0.50;;;9.30;99.90;;;;;;6208388;23;20381;-76
2023/11/16 02:37:30;;;;;;;1.20;0.25;;;9.30;99.90;;;;;;6207677;23;20075;-77
2023/11/16 02:39:56;;;;;;;10.07;0.52;;;9.30;99.90;;;;;;6209622;23;20111;-77
2023/11/16 02:42:22;;;;;;;5.70;0.73;;;9.30;99.90;;;;;;6208464;23;20004;-78
2023/11/16 02:44:47;;;;;;;5.07;0.60;;;9.40;99.90;;;;;;6211509;23;20019;-77
2023/11/16 02:47:15;;;;;;;6.57;0.73;;;9.40;99.90;;;;;;6209571;23;20028;-77
2023/11/16 02:49:42;;;;;;;7.20;0.35;;;9.30;99.90;;;;;;6209465;23;20051;-76
2023/11/16 02:52:11;;;;;;;7.05;0.45;;;9.40;99.90;;;;;;6210268;23;20120;-77
2023/11/16 02:54:40;;;;;;;4.53;0.40;;;9.40;99.90;;;;;;6208995;23;20016;-77
2023/11/16 02:57:07;;;;;;;5.25;0.35;;;9.40;99.90;;;;;;6210470;23;20508;-76
2023/11/16 02:59:34;;;;;;;8.02;0.85;;;9.30;99.90;;;;;;6211286;23;20019;-76
2023/11/16 03:01:59;;;;;;;8.02;0.60;;;9.40;99.90;;;;;;6210099;23;20023;-77
2023/11/16 03:04:25;;;;;;;10.25;1.20;;;9.30;99.90;;;;;;6209323;23;20017;-77
2023/11/16 03:06:53;;;;;;;3.90;0.25;;;9.30;99.90;;;;;;6210093;23;20015;-77
2023/11/16 03:09:19;;;;;;;6.93;0.88;;;9.30;99.90;;;;;;6208613;23;20477;-77
2023/11/16 03:11:45;;;;;;;4.03;0.60;;;9.20;99.90;;;;;;6209562;23;20004;-78
2023/11/16 03:14:10;;;;;;;15.23;1.50;;;9.30;99.90;;;;;;6210945;23;20012;-76
2023/11/16 03:16:52;;;;;;;3.40;0.40;;;9.30;99.90;;;;;;6210965;23;20012;-78
2023/11/16 03:19:18;;;;;;;7.22;1.02;;;9.20;99.90;;;;;;6210583;23;20012;-76
2023/11/16 03:21:44;;;;;;;4.35;0.32;;;9.20;99.90;;;;;;6212145;23;20039;-77
2023/11/16 03:24:10;;;;;;;11.25;0.50;;;9.10;99.90;;;;;;6212750;23;20022;-77
2023/11/16 03:26:35;;;;;;;3.95;0.55;;;9.10;99.90;;;;;;6211103;23;20028;-78
2023/11/16 03:29:01;;;;;;;6.03;0.40;;;9.10;99.90;;;;;;6212244;23;20308;-77
2023/11/16 03:31:26;;;;;;;6.35;0.63;;;9.00;99.90;;;;;;6214053;23;20025;-78
2023/11/16 03:33:52;;;;;;;4.20;0.22;;;9.00;99.90;;;;;;6215304;23;20381;-78
2023/11/16 03:36:18;;;;;;;15.70;0.93;;;8.90;99.90;;;;;;6214730;23;20087;-78
2023/11/16 03:38:46;;;;;;;4.40;0.35;;;8.90;99.90;;;;;;6213536;23;20020;-76
2023/11/16 03:41:11;;;;;;;3.42;1.20;;;8.90;99.90;;;;;;6212354;23;20020;-75
2023/11/16 03:43:37;;;;;;;1.00;0.30;;;8.90;99.90;;;;;;6210999;23;20020;-76
2023/11/16 03:46:07;;;;;;;3.70;0.25;;;8.90;99.90;;;;;;6171077;23;20040;-77
2023/11/16 03:48:33;;;;;;;3.70;0.50;;;8.80;99.90;;;;;;6209332;22;20009;-76
2023/11/16 03:50:58;;;;;;;6.22;0.55;;;8.80;99.90;;;;;;6213574;22;20342;-75
2023/11/16 03:53:24;;;;;;;4.28;0.17;;;8.90;99.90;;;;;;6211331;22;20021;-74
2023/11/16 03:55:51;;;;;;;8.88;0.60;;;8.90;99.90;;;;;;6212427;23;20004;-75
2023/11/16 03:58:16;;;;;;;1.52;0.20;;;8.90;99.90;;;;;;6211913;23;20008;-76
2023/11/16 04:00:42;;;;;;;4.68;0.82;;;8.90;99.90;;;;;;6212144;23;20012;-76
2023/11/16 04:03:08;;;;;;;2.95;0.70;;;8.90;99.90;;;;;;6213847;23;20012;-75
2023/11/16 04:05:33;;;;;;;4.25;0.38;;;8.90;99.90;;;;;;6211541;23;20450;-77
2023/11/16 04:07:59;;;;;;;3.33;0.30;;;8.90;99.90;;;;;;6214399;23;20012;-75
2023/11/16 04:10:25;;;;;;;3.47;0.52;;;8.90;99.90;;;;;;6211067;23;20051;-75
2023/11/16 04:12:50;;;;;;;1.05;0.30;;;8.90;99.90;;;;;;6212815;23;20341;-76
2023/11/16 04:15:16;;;;;;;2.35;0.30;;;8.90;99.90;;;;;;6213176;23;20079;-78
2023/11/16 04:17:45;;;;;;;3.10;0.32;;;8.90;99.90;;;;;;6213805;23;20023;-75
2023/11/16 04:20:12;;;;;;;2.90;0.20;;;8.80;99.90;;;;;;6214225;23;20008;-76
2023/11/16 04:22:41;;;;;;;4.38;0.30;;;8.80;99.90;;;;;;6211124;23;20009;-76
2023/11/16 04:25:18;;;;;;;3.47;0.35;;;8.70;99.90;;;;;;6212909;23;20438;-77
2023/11/16 04:27:45;;;;;;;1.42;0.38;;;8.70;99.90;;;;;;6211309;23;20450;-76
2023/11/16 04:30:13;;;;;;;2.03;0.30;;;8.70;99.90;;;;;;6211408;23;20040;-76
2023/11/16 04:32:42;;;;;;;5.78;0.70;;;8.60;99.90;;;;;;6211298;23;20095;-75
2023/11/16 04:35:09;;;;;;;4.55;0.55;;;8.60;99.90;;;;;;6213941;23;20008;-75
2023/11/16 04:37:37;;;;;;;6.03;0.50;;;8.50;99.90;;;;;;6211504;23;20020;-76
2023/11/16 04:40:07;;;;;;;6.47;0.50;;;8.50;99.90;;;;;;6212703;23;20023;-75
2023/11/16 04:42:33;;;;;;;2.47;0.25;;;8.50;99.90;;;;;;6211397;23;20034;-76
2023/11/16 04:44:58;;;;;;;2.05;0.38;;;8.40;99.90;;;;;;6212677;23;20034;-76
2023/11/16 04:47:24;;;;;;;6.70;0.68;;;8.40;99.90;;;;;;6213258;23;20024;-77
2023/11/16 04:49:50;;;;;;;5.60;0.50;;;8.40;99.90;;;;;;6209831;23;20015;-76
2023/11/16 04:52:16;;;;;;;1.30;0.35;;;8.40;99.90;;;;;;6211492;23;20393;-79
2023/11/16 04:54:41;;;;;;;3.33;0.35;;;8.40;99.90;;;;;;6211004;23;20016;-76
2023/11/16 04:57:07;;;;;;;3.03;0.43;;;8.40;99.90;;;;;;6211904;23;20015;-76
2023/11/16 04:59:33;;;;;;;4.78;0.65;;;8.40;99.90;;;;;;6212713;23;20013;-76
2023/11/16 05:01:58;;;;;;;5.22;1.65;;;8.40;99.90;;;;;;6212511;23;20004;-75
2023/11/16 05:04:24;;;;;;;1.88;0.50;;;8.40;99.90;;;;;;6210377;23;20633;-77
2023/11/16 05:06:50;;;;;;;4.65;1.00;;;8.40;99.90;;;;;;6214493;23;20009;-76
2023/11/16 05:09:15;;;;;;;10.43;1.63;;;8.40;99.90;;;;;;6212167;23;20012;-77
2023/11/16 05:11:41;;;;;;;4.63;0.60;;;8.40;99.90;;;;;;6213361;23;20009;-75
2023/11/16 05:14:06;;;;;;;6.85;0.73;;;8.40;99.90;;;;;;6212264;23;20020;-76
2023/11/16 05:16:32;;;;;;;5.20;0.60;;;8.40;99.90;;;;;;6212688;23;20362;-75
2023/11/16 05:18:58;;;;;;;1.65;0.70;;;8.40;99.90;;;;;;6212417;23;20088;-78
2023/11/16 05:21:23;;;;;;;3.38;0.73;;;8.50;99.90;;;;;;6213081;23;20035;-76
2023/11/16 05:23:49;;;;;;;2.28;0.50;;;8.50;99.90;;;;;;6214285;23;20008;-77
2023/11/16 05:26:16;;;;;;;5.10;0.52;;;8.50;99.90;;;;;;6212178;23;20036;-77
2023/11/16 05:28:42;;;;;;;4.00;0.90;;;8.50;99.90;;;;;;6212059;23;20030;-76
2023/11/16 05:31:08;;;;;;;3.15;0.63;;;8.60;99.90;;;;;;6212039;23;20016;-75
2023/11/16 05:33:34;;;;;;;4.68;0.57;;;8.60;99.90;;;;;;6213044;23;20345;-75
2023/11/16 05:36:00;;;;;;;5.43;0.65;;;8.60;99.90;;;;;;6212103;23;20009;-75
2023/11/16 05:38:26;;;;;;;2.65;0.70;;;8.60;99.90;;;;;;6211199;23;20449;-76
2023/11/16 05:40:52;;;;;;;3.88;0.68;;;8.60;99.90;;;;;;6212577;23;20013;-75
2023/11/16 05:43:18;;;;;;;5.85;1.15;;;8.60;99.90;;;;;;6211922;23;20059;-76
2023/11/16 05:45:44;;;;;;;5.88;0.85;;;8.70;99.90;;;;;;6212368;23;20456;-76
2023/11/16 05:48:10;;;;;;;8.60;1.25;;;8.70;99.90;;;;;;6214593;23;20028;-77
2023/11/16 05:50:36;;;;;;;4.53;0.98;;;8.70;99.90;;;;;;6212499;23;20425;-78
2023/11/16 05:53:02;;;;;;;4.82;1.08;;;8.70;99.90;;;;;;6211277;23;20021;-76
2023/11/16 05:55:32;;;;;;;3.15;1.00;;;8.70;99.90;;;;;;6210289;23;20008;-79
2023/11/16 05:57:58;;;;;;;5.00;1.55;;;8.70;99.90;;;;;;6207628;23;20005;-74
2023/11/16 06:00:24;;;;;;;5.82;1.33;;;8.70;99.90;;;;;;6207526;23;20018;-77
2023/11/16 06:02:49;;;;;;;3.55;1.05;;;8.80;99.90;;;;;;6208251;23;20001;-77
2023/11/16 06:05:15;;;;;;;5.75;1.40;;;8.80;99.90;;;;;;6206021;23;20017;-76
2023/11/16 06:07:41;;;;;;;5.68;0.95;;;8.80;99.90;;;;;;6206580;23;20035;-77
2023/11/16 06:10:10;;;;;;;4.75;1.10;;;8.80;99.90;;;;;;6208521;23;20011;-75
2023/11/16 06:12:37;;;;;;;4.32;1.00;;;8.80;99.90;;;;;;6207156;23;20013;-76
2023/11/16 06:15:03;;;;;;;4.82;1.05;;;8.80;99.90;;;;;;6208630;23;20092;-75
2023/11/16 06:17:28;;;;;;;3.28;0.93;;;8.70;99.90;;;;;;6207497;23;20017;-76
2023/11/16 06:19:54;;;;;;;5.18;2.13;;;8.80;99.90;;;;;;6209890;23;20005;-76
2023/11/16 06:22:20;;;;;;;4.03;1.60;;;8.80;99.90;;;;;;6206669;23;20005;-74
2023/11/16 06:24:46;;;;;;;5.22;1.63;;;8.80;99.90;;;;;;6209993;23;20073;-74
2023/11/16 06:27:12;;;;;;;7.22;1.80;;;8.80;99.90;;;;;;6210121;23;20348;-76
2023/11/16 06:29:37;;;;;;;4.57;1.95;;;8.80;99.90;;;;;;6206962;23;20004;-75
2023/11/16 06:32:05;;;;;;;4.13;1.52;;;8.80;99.90;;;;;;6208269;23;20031;-75
2023/11/16 06:34:31;;;;;;;4.93;1.90;;;8.80;99.90;;;;;;6207772;23;20016;-75
2023/11/16 06:36:58;;;;;;;5.05;1.98;;;8.80;99.90;;;;;;6210406;23;20395;-80
2023/11/16 06:39:24;;;;;;;4.53;1.92;;;8.80;99.90;;;;;;6208130;23;20036;-74
2023/11/16 06:41:49;;;;;;;5.82;2.00;;;8.80;99.90;;;;;;6208640;23;20051;-78
2023/11/16 06:44:18;;;;;;;5.22;2.08;;;8.80;99.90;;;;;;6207731;23;20012;-74
2023/11/16 06:46:45;;;;;;;4.05;2.28;;;8.80;99.90;;;;;;6209201;23;20042;-75
2023/11/16 06:49:11;;;;;;;6.20;2.55;;;8.80;99.90;;;;;;6208602;23;20039;-75
2023/11/16 06:51:36;;;;;;;8.90;2.90;;;8.80;99.90;;;;;;6209538;23;20020;-75
2023/11/16 06:54:05;;;;;;;4.95;2.40;;;8.80;99.90;;;;;;6206864;23;20032;-75
2023/11/16 06:56:33;;;;;;;6.85;2.20;;;8.80;99.90;;;;;;6206763;23;20009;-77
2023/11/16 06:59:00;;;;;;;9.82;2.80;;;8.80;99.90;;;;;;6208475;23;20008;-77
2023/11/16 07:01:29;;;;;;;6.15;2.20;;;8.80;99.90;;;;;;6206730;23;20095;-77
2023/11/16 07:03:55;;;;;;;10.00;3.58;;;8.80;99.90;;;;;;6210144;23;20008;-75
2023/11/16 07:06:20;;;;;;;7.45;2.70;;;8.80;99.90;;;;;;6206052;23;20405;-76
2023/11/16 07:08:46;;;;;;;10.82;3.28;;;8.80;99.90;;;;;;6208881;23;20009;-77
2023/11/16 07:11:12;;;;;;;9.98;3.13;;;8.80;99.90;;;;;;6210341;23;20334;-77
2023/11/16 07:13:38;;;;;;;7.40;2.22;;;8.80;99.90;;;;;;6205745;23;20013;-76
2023/11/16 07:16:04;;;;;;;8.52;3.35;;;8.80;99.90;;;;;;6210331;23;20011;-80
2023/11/16 07:18:29;;;;;;;7.85;2.80;;;8.80;99.90;;;;;;6206467;23;20100;-76
2023/11/16 07:20:57;;;;;;;7.80;2.83;;;8.80;99.90;;;;;;6207482;23;20400;-75
2023/11/16 07:23:24;;;;;;;8.43;2.90;;;8.80;99.90;;;;;;6205254;23;20083;-75
2023/11/16 07:25:49;;;;;;;8.38;2.63;;;8.80;99.90;;;;;;6206595;23;20001;-76
2023/11/16 07:28:15;;;;;;;7.93;2.63;;;8.80;99.90;;;;;;6208912;23;20015;-77
2023/11/16 07:30:43;;;;;;;8.43;2.78;;;8.80;99.90;;;;;;6206604;23;20017;-75
2023/11/16 07:33:11;;;;;;;4.45;2.22;;;8.80;99.90;;;;;;6207547;23;20354;-75
2023/11/16 07:35:37;;;;;;;9.07;3.17;;;8.80;99.90;;;;;;6206689;23;20059;-75
2023/11/16 07:38:04;;;;;;;10.18;3.05;;;8.80;99.90;;;;;;6206830;23;20000;-74
2023/11/16 07:40:29;;;;;;;7.90;2.80;;;8.80;99.90;;;;;;6205474;23;20012;-75
2023/11/16 07:42:55;;;;;;;7.00;2.35;;;8.90;99.90;;;;;;6206710;23;20090;-74
2023/11/16 07:45:21;;;;;;;7.25;2.97;;;8.90;99.90;;;;;;6204969;23;20112;-76
2023/11/16 07:47:47;;;;;;;6.47;2.50;;;8.90;99.90;;;;;;6207252;23;20017;-77
2023/11/16 07:50:13;;;;;;;8.63;3.28;;;8.90;99.90;;;;;;6204647;23;20008;-75
2023/11/16 07:52:43;;;;;;;7.43;2.85;;;9.00;99.90;;;;;;6204661;23;20378;-75
2023/11/16 07:55:18;;;;;;;9.00;2.78;;;9.00;99.90;;;;;;6207618;23;20055;-77
2023/11/16 07:57:47;;;;;;;7.05;2.65;;;9.00;99.90;;;;;;6204325;23;20009;-78
2023/11/16 08:00:22;;;;;;;14.45;4.03;;;9.10;99.90;;;;;;6206796;23;20750;-75
2023/11/16 08:05:33;;;;;;;6.45;2.75;;;9.20;99.90;;;;;;6208016;23;20346;-74
2023/11/16 08:08:00;;;;;;;13.43;4.90;;;9.20;99.90;;;;;;6208169;23;20038;-75
2023/11/16 08:10:26;;;;;;;10.32;3.60;;;9.20;99.90;;;;;;6208527;23;20008;-75
2023/11/16 08:12:53;;;;;;;17.27;3.38;;;9.20;99.90;;;;;;6209572;23;20051;-75
2023/11/16 08:15:24;;;;;;;8.07;2.85;;;9.10;99.90;;;;;;6209288;23;20508;-75
2023/11/16 08:17:53;;;;;;;;;;;9.10;99.90;;;;;;6208823;23;20004;-77
2023/11/16 08:20:23;;;;;;;7.38;2.50;;;9.20;99.90;;;;;;6206509;23;19904;-74
2023/11/16 08:22:53;;;;;;;7.07;3.33;;;9.10;99.90;;;;;;6207823;23;20079;-75
2023/11/16 08:25:22;;;;;;;11.13;4.07;;;9.10;99.90;;;;;;6208978;23;20482;-75
2023/11/16 08:27:49;;;;;;;13.95;3.95;;;9.10;99.90;;;;;;6208380;22;20001;-75
2023/11/16 08:30:16;;;;;;;8.73;3.45;;;9.20;99.90;;;;;;6207751;23;20024;-75
2023/11/16 08:32:42;;;;;;;6.97;3.33;;;9.10;99.90;;;;;;6209454;23;20016;-73
2023/11/16 08:35:08;;;;;;;14.68;3.65;;;9.10;99.90;;;;;;6208192;23;20005;-74
2023/11/16 08:37:34;;;;;;;8.07;2.85;;;9.20;99.90;;;;;;6207077;23;20009;-74
2023/11/16 08:39:59;;;;;;;8.57;3.65;;;9.20;99.90;;;;;;6208445;23;20000;-75
2023/11/16 08:42:25;;;;;;;8.10;3.70;;;9.20;99.90;;;;;;6209902;22;20083;-75
2023/11/16 08:44:51;;;;;;;9.15;3.97;;;9.20;99.90;;;;;;6208293;23;20009;-74
2023/11/16 08:47:18;;;;;;;10.95;4.35;;;9.20;99.90;;;;;;6208265;23;20418;-75
2023/11/16 08:49:47;;;;;;;10.30;4.25;;;9.20;99.90;;;;;;6209919;23;20005;-75
2023/11/16 08:52:14;;;;;;;15.93;4.55;;;9.30;99.90;;;;;;6210930;23;20462;-75
2023/11/16 08:54:41;;;;;;;12.57;4.50;;;9.30;99.90;;;;;;6209628;23;20097;-75
2023/11/16 08:57:08;;;;;;;14.40;5.05;;;9.30;99.90;;;;;;6210054;23;20009;-76
2023/11/16 08:59:35;;;;;;;9.85;4.57;;;9.20;99.90;;;;;;6206874;23;20016;-75
2023/11/16 09:02:02;;;;;;;10.35;4.53;;;9.20;99.90;;;;;;6209491;23;20012;-76
2023/11/16 09:04:28;;;;;;;11.02;4.95;;;9.30;99.90;;;;;;6208145;23;20117;-77
2023/11/16 09:06:54;;;;;;;13.45;5.68;;;9.30;99.90;;;;;;6209209;23;20012;-74
2023/11/16 09:09:38;;;;;;;18.38;4.85;;;9.30;99.90;;;;;;6206580;23;20108;-75
2023/11/16 09:12:12;;;;;;;9.60;4.03;;;9.40;99.90;;;;;;6208828;23;20012;-75
2023/11/16 09:14:40;;;;;;;11.02;4.85;;;9.40;99.90;;;;;;6208380;23;20074;-74
2023/11/16 09:17:16;;;;;;;10.27;4.15;;;9.30;99.90;;;;;;6208816;23;20108;-75
2023/11/16 09:19:43;;;;;;;11.32;4.25;;;9.40;99.90;;;;;;6207460;23;20108;-76
2023/11/16 09:22:09;;;;;;;10.65;3.58;;;9.40;99.90;;;;;;6209612;23;20024;-74
2023/11/16 09:24:37;;;;;;;14.02;4.82;;;9.40;99.90;;;;;;6206483;23;20346;-78
2023/11/16 09:27:04;;;;;;;10.32;4.47;;;9.40;99.90;;;;;;6209472;23;20572;-75
2023/11/16 09:29:30;;;;;;;13.50;4.53;;;9.40;99.90;;;;;;6206049;23;20017;-75
2023/11/16 09:31:56;;;;;;;13.02;4.20;;;9.40;99.90;;;;;;6207386;23;20013;-77
2023/11/16 09:34:22;;;;;;;9.35;3.65;;;9.40;99.90;;;;;;6205575;23;20096;-76
2023/11/16 09:36:50;;;;;;;9.68;3.70;;;9.40;99.90;;;;;;6208130;23;20466;-76
2023/11/16 09:39:16;;;;;;;9.52;3.88;;;9.40;99.90;;;;;;6209042;23;20013;-73
2023/11/16 09:41:49;;;;;;;9.75;3.90;;;9.40;99.90;;;;;;6207445;23;20032;-74
2023/11/16 09:44:17;;;;;;;9.45;3.60;;;9.40;99.90;;;;;;6209431;23;20020;-75
2023/11/16 09:51:54;;;;;;;12.15;4.50;;;9.50;99.90;;;;;;6203920;22;20017;-78
2023/11/16 09:54:22;;;;;;;13.98;5.55;;;9.50;99.90;;;;;;6204761;22;20020;-77
2023/11/16 09:56:48;;;;;;;12.48;4.22;;;9.50;99.90;;;;;;6205712;23;20013;-78
2023/11/16 09:59:17;;;;;;;16.23;5.15;;;9.50;99.90;;;;;;6205815;23;20027;-77
2023/11/16 10:01:46;;;;;;;11.65;4.28;;;9.50;99.90;;;;;;6205014;23;20040;-77
2023/11/16 10:04:14;;;;;;;11.38;5.10;;;9.50;99.90;;;;;;6206012;23;20024;-77
2023/11/16 10:06:46;;;;;;;9.73;4.03;;;9.50;99.90;;;;;;6204803;22;20029;-75
2023/11/16 10:09:14;;;;;;;14.88;4.80;;;9.40;99.90;;;;;;6205639;23;20012;-77
2023/11/16 10:11:41;;;;;;;15.38;4.50;;;9.40;99.90;;;;;;6204530;23;20005;-77
2023/11/16 10:14:07;;;;;;;11.93;4.18;;;9.40;99.90;;;;;;6205833;23;20095;-76
2023/11/16 10:16:33;;;;;;;8.25;3.60;;;9.40;99.90;;;;;;6204564;23;20042;-76
2023/11/16 10:19:10;;;;;;;14.25;3.65;;;9.40;99.90;;;;;;6208914;23;20066;-76
2023/11/16 10:21:39;;;;;;;11.40;4.93;;;9.50;99.90;;;;;;6205335;23;20477;-75
2023/11/16 10:24:09;;;;;;;13.38;4.45;;;9.50;99.90;;;;;;6208574;23;20009;-75
2023/11/16 10:26:35;;;;;;;10.15;4.03;;;9.50;99.90;;;;;;6204531;23;20012;-77
2023/11/16 10:29:01;;;;;;;9.68;3.90;;;9.40;99.90;;;;;;6206637;23;20005;-76
2023/11/16 10:31:31;;;;;;;14.93;4.28;;;9.40;99.90;;;;;;6204830;22;20016;-75
2023/11/16 10:33:58;;;;;;;11.13;4.07;;;9.40;99.90;;;;;;6206839;23;20160;-75
2023/11/16 10:36:26;;;;;;;13.18;4.63;;;9.40;99.90;;;;;;6204973;23;20384;-77
2023/11/16 10:38:57;;;;;;;11.30;3.60;;;9.40;99.90;;;;;;6206054;23;20004;-76
2023/11/16 10:41:24;;;;;;;10.05;3.67;;;9.40;99.90;;;;;;6205650;23;20051;-76
2023/11/16 10:43:56;;;;;;;8.32;4.05;;;9.50;99.90;;;;;;6206867;23;20048;-76
2023/11/16 10:46:25;;;;;;;11.25;3.70;;;9.50;99.90;;;;;;6204936;23;20008;-75
2023/11/16 10:48:51;;;;;;;10.57;3.53;;;9.40;99.90;;;;;;6207960;23;20008;-76
2023/11/16 10:51:20;;;;;;;15.48;5.15;;;9.50;99.90;;;;;;6208787;23;20705;-76
2023/11/16 10:53:51;;;;;;;8.63;3.25;;;9.40;99.90;;;;;;6207197;23;20052;-75
2023/11/16 10:56:18;;;;;;;15.05;4.75;;;9.50;99.90;;;;;;6206571;23;20012;-76
2023/11/16 10:58:47;;;;;;;12.20;4.10;;;9.50;99.90;;;;;;6203536;23;20084;-77
2023/11/16 11:01:17;;;;;;;13.77;4.15;;;9.50;99.90;;;;;;6203033;23;20017;-75
2023/11/16 11:03:47;;;;;;;10.40;3.50;;;9.50;99.90;;;;;;6202607;23;20012;-76
2023/11/16 11:06:19;;;;;;;9.47;4.07;;;9.50;99.90;;;;;;6201257;23;20012;-76
2023/11/16 11:08:45;;;;;;;10.38;4.13;;;9.50;99.90;;;;;;6206723;23;20016;-76
2023/11/16 11:11:11;;;;;;;9.18;3.95;;;9.50;99.90;;;;;;6206826;23;20017;-77
2023/11/16 11:13:39;;;;;;;9.52;3.67;;;9.50;99.90;;;;;;6205492;23;20017;-77
2023/11/16 11:16:10;;;;;;;12.35;3.55;;;9.60;99.90;;;;;;6206387;23;20051;-76
2023/11/16 11:18:52;;;;;;;8.70;3.15;;;9.50;99.90;;;;;;6205744;23;20074;-77
2023/11/16 11:21:20;;;;;;;9.90;3.97;;;9.50;99.90;;;;;;6207738;23;20442;-78
2023/11/16 11:23:59;;;;;;;11.00;3.85;;;9.50;99.90;;;;;;6205706;23;20009;-74
2023/11/16 11:26:35;;;;;;;9.20;3.67;;;9.50;99.90;;;;;;6204469;23;20012;-77
2023/11/16 11:29:01;;;;;;;14.93;3.88;;;9.50;99.90;;;;;;6207642;23;20013;-77
2023/11/16 11:31:37;;;;;;;8.95;3.03;;;9.50;99.90;;;;;;6205003;23;20016;-77
2023/11/16 11:34:10;;;;;;;10.35;3.95;;;9.50;99.90;;;;;;6203203;23;20438;-75
2023/11/16 11:36:36;;;;;;;7.15;3.00;;;9.60;99.90;;;;;;6203580;23;20008;-77
2023/11/16 11:39:04;;;;;;;9.60;4.00;;;9.50;99.90;;;;;;6207039;23;20066;-76
2023/11/16 11:41:30;;;;;;;9.77;3.85;;;9.60;99.90;;;;;;6205844;23;20399;-77
2023/11/16 11:44:05;;;;;;;9.95;3.97;;;9.50;99.90;;;;;;6209311;23;20019;-76
2023/11/16 11:46:33;;;;;;;7.60;3.42;;;9.50;99.90;;;;;;6208723;23;20088;-77
2023/11/16 11:49:00;;;;;;;10.05;3.85;;;9.50;99.90;;;;;;6211546;23;20052;-77
2023/11/16 11:51:28;;;;;;;9.75;2.70;;;9.60;99.90;;;;;;6209363;23;20022;-77
2023/11/16 11:53:55;;;;;;;10.20;3.25;;;9.60;99.90;;;;;;6208866;23;20068;-75
2023/11/16 11:56:21;;;;;;;9.10;2.95;;;9.60;99.90;;;;;;6210799;23;20040;-76
2023/11/16 11:58:47;;;;;;;7.07;2.95;;;9.50;99.90;;;;;;6210958;23;20031;-76
2023/11/16 12:01:12;;;;;;;12.63;3.63;;;9.50;99.90;;;;;;6208344;23;20073;-76
2023/11/16 12:03:51;;;;;;;10.60;2.85;;;9.50;99.90;;;;;;6210887;23;20042;-76
2023/11/16 12:06:17;;;;;;;12.80;3.20;;;9.50;99.90;;;;;;6211487;23;20069;-75
2023/11/16 12:08:44;;;;;;;9.20;2.40;;;9.60;99.90;;;;;;6209987;23;20004;-77
2023/11/16 12:11:11;;;;;;;8.52;3.10;;;9.60;99.90;;;;;;6211401;23;20005;-76
2023/11/16 12:13:40;;;;;;;9.48;2.45;;;9.50;99.90;;;;;;6210135;23;20012;-76
2023/11/16 12:16:07;;;;;;;12.75;5.00;;;9.40;99.90;;;;;;6208448;23;20398;-76
2023/11/16 12:18:35;;;;;;;6.28;2.75;;;9.40;99.90;;;;;;6204479;23;20033;-76
2023/11/16 12:21:05;;;;;;;10.63;3.65;;;9.40;99.90;;;;;;6205829;23;20443;-74
2023/11/16 12:23:30;;;;;;;12.60;3.00;;;9.40;99.90;;;;;;6208526;23;20013;-74
2023/11/16 12:25:59;;;;;;;8.07;2.63;;;9.40;99.90;;;;;;6207699;23;20016;-74
2023/11/16 12:28:26;;;;;;;8.80;2.75;;;9.40;99.90;;;;;;6207172;23;20021;-75
2023/11/16 12:30:52;;;;;;;4.03;1.83;;;9.40;99.90;;;;;;6210706;23;20606;-75
2023/11/16 12:33:17;;;;;;;7.93;2.85;;;9.40;99.90;;;;;;6210043;23;20019;-76
2023/11/16 12:35:43;;;;;;;6.35;2.70;;;9.40;99.90;;;;;;6207384;23;20000;-76
2023/11/16 12:38:10;;;;;;;8.63;2.40;;;9.40;99.90;;;;;;6210181;23;20037;-76
2023/11/16 12:40:36;;;;;;;9.65;2.60;;;9.30;99.90;;;;;;6208348;23;20009;-76
2023/11/16 12:43:03;;;;;;;7.82;2.67;;;9.30;99.90;;;;;;6209163;23;20084;-76
2023/11/16 12:45:31;;;;;;;7.10;2.33;;;9.30;99.90;;;;;;6207228;23;20008;-76
2023/11/16 12:47:57;;;;;;;9.52;3.00;;;9.30;99.90;;;;;;6208217;23;20330;-75
2023/11/16 12:50:23;;;;;;;9.95;2.47;;;9.30;99.90;;;;;;6206654;23;20075;-76
2023/11/16 12:52:48;;;;;;;13.02;3.08;;;9.30;99.90;;;;;;6208458;23;20009;-76
2023/11/16 12:55:15;;;;;;;5.35;2.00;;;9.30;99.90;;;;;;6208504;23;20012;-76
2023/11/16 12:57:40;;;;;;;5.85;2.25;;;9.30;99.90;;;;;;6208777;23;20391;-75
2023/11/16 13:00:09;;;;;;;7.47;2.03;;;9.20;99.90;;;;;;6208378;23;20035;-76
2023/11/16 13:02:36;;;;;;;11.05;1.90;;;9.20;99.90;;;;;;6207345;23;20822;-74